sensor_id;sensor_type;location;lat;lon;timestamp;temperature;humidity
23499;DHT22;11926;48.120;11.562;2023-02-28T00:00:08;-1.40;88.70
23499;DHT22;11926;48.120;11.562;2023-02-28T00:02:58;-1.40;88.70
23499;DHT22;11926;48.120;11.562;2023-02-28T00:05:45;-1.40;88.80
23499;DHT22;11926;48.120;11.562;2023-02-28T00:08:33;-1.40;88.80
23499;DHT22;11926;48.120;11.562;2023-02-28T00:11:21;-1.40;89.70
23499;DHT22;11926;48.120;11.562;2023-02-28T00:14:09;-1.50;88.80
23499;DHT22;11926;48.120;11.562;2023-02-28T00:16:57;-1.40;88.90
23499;DHT22;11926;48.120;11.562;2023-02-28T00:19:47;-1.50;89.00
23499;DHT22;11926;48.120;11.562;2023-02-28T00:22:37;-1.50;88.90
23499;DHT22;11926;48.120;11.562;2023-02-28T00:25:25;-1.50;89.00
23499;DHT22;11926;48.120;11.562;2023-02-28T00:28:13;-1.50;89.10
23499;DHT22;11926;48.120;11.562;2023-02-28T00:31:00;-1.50;89.10
23499;DHT22;11926;48.120;11.562;2023-02-28T00:33:48;-1.50;89.20
23499;DHT22;11926;48.120;11.562;2023-02-28T00:36:40;-1.60;89.10
23499;DHT22;11926;48.120;11.562;2023-02-28T00:39:32;-1.60;89.20
23499;DHT22;11926;48.120;11.562;2023-02-28T00:42:20;-1.60;89.30
23499;DHT22;11926;48.120;11.562;2023-02-28T00:45:08;-1.60;89.30
23499;DHT22;11926;48.120;11.562;2023-02-28T00:47:56;-1.60;89.50
23499;DHT22;11926;48.120;11.562;2023-02-28T00:50:44;-1.60;89.50
23499;DHT22;11926;48.120;11.562;2023-02-28T00:53:33;-1.70;89.40
23499;DHT22;11926;48.120;11.562;2023-02-28T00:56:20;-1.70;89.50
23499;DHT22;11926;48.120;11.562;2023-02-28T00:59:08;-1.70;89.50
23499;DHT22;11926;48.120;11.562;2023-02-28T01:01:57;-1.70;89.70
23499;DHT22;11926;48.120;11.562;2023-02-28T01:04:46;-1.70;89.70
23499;DHT22;11926;48.120;11.562;2023-02-28T01:07:33;-1.70;89.70
23499;DHT22;11926;48.120;11.562;2023-02-28T01:10:22;-1.70;89.70
23499;DHT22;11926;48.120;11.562;2023-02-28T01:13:10;-1.70;89.70
23499;DHT22;11926;48.120;11.562;2023-02-28T01:15:58;-1.70;89.90
23499;DHT22;11926;48.120;11.562;2023-02-28T01:18:45;-1.80;89.90
23499;DHT22;11926;48.120;11.562;2023-02-28T01:21:35;-1.80;89.90
23499;DHT22;11926;48.120;11.562;2023-02-28T01:24:24;-1.80;90.00
23499;DHT22;11926;48.120;11.562;2023-02-28T01:27:12;-1.80;90.00
23499;DHT22;11926;48.120;11.562;2023-02-28T01:30:00;-1.80;90.00
23499;DHT22;11926;48.120;11.562;2023-02-28T01:32:47;-1.80;90.00
23499;DHT22;11926;48.120;11.562;2023-02-28T01:35:37;-1.80;90.00
23499;DHT22;11926;48.120;11.562;2023-02-28T01:38:27;-1.80;90.00
23499;DHT22;11926;48.120;11.562;2023-02-28T01:41:17;-1.90;90.00
23499;DHT22;11926;48.120;11.562;2023-02-28T01:50:19;-1.90;90.10
23499;DHT22;11926;48.120;11.562;2023-02-28T01:53:12;-1.90;90.20
23499;DHT22;11926;48.120;11.562;2023-02-28T01:56:05;-1.90;90.20
23499;DHT22;11926;48.120;11.562;2023-02-28T01:58:54;-1.90;90.20
23499;DHT22;11926;48.120;11.562;2023-02-28T02:01:43;-2.00;90.10
23499;DHT22;11926;48.120;11.562;2023-02-28T02:04:35;-2.00;90.20
23499;DHT22;11926;48.120;11.562;2023-02-28T02:07:25;-2.00;90.20
23499;DHT22;11926;48.120;11.562;2023-02-28T02:10:18;-2.00;90.30
23499;DHT22;11926;48.120;11.562;2023-02-28T02:13:17;-2.00;90.30
23499;DHT22;11926;48.120;11.562;2023-02-28T02:16:16;-2.00;90.40
23499;DHT22;11926;48.120;11.562;2023-02-28T02:19:23;-2.00;90.40
23499;DHT22;11926;48.120;11.562;2023-02-28T02:22:36;-2.00;90.40
23499;DHT22;11926;48.120;11.562;2023-02-28T02:25:28;-2.00;90.40
23499;DHT22;11926;48.120;11.562;2023-02-28T02:28:42;-2.10;90.40
23499;DHT22;11926;48.120;11.562;2023-02-28T02:31:56;-2.00;90.40
23499;DHT22;11926;48.120;11.562;2023-02-28T02:34:57;-2.10;90.40
23499;DHT22;11926;48.120;11.562;2023-02-28T02:37:53;-2.10;90.50
23499;DHT22;11926;48.120;11.562;2023-02-28T02:40:49;-2.20;90.50
23499;DHT22;11926;48.120;11.562;2023-02-28T02:43:42;-2.20;90.60
23499;DHT22;11926;48.120;11.562;2023-02-28T02:46:34;-2.20;90.60
23499;DHT22;11926;48.120;11.562;2023-02-28T02:49:25;-2.20;90.60
23499;DHT22;11926;48.120;11.562;2023-02-28T02:52:20;-2.20;90.60
23499;DHT22;11926;48.120;11.562;2023-02-28T02:55:14;-2.20;90.70
23499;DHT22;11926;48.120;11.562;2023-02-28T02:58:04;-2.20;90.70
23499;DHT22;11926;48.120;11.562;2023-02-28T03:00:58;-2.30;90.70
23499;DHT22;11926;48.120;11.562;2023-02-28T03:03:47;-2.30;90.80
23499;DHT22;11926;48.120;11.562;2023-02-28T03:06:35;-2.30;90.80
23499;DHT22;11926;48.120;11.562;2023-02-28T03:09:25;-2.30;90.80
23499;DHT22;11926;48.120;11.562;2023-02-28T03:12:13;-2.30;90.80
23499;DHT22;11926;48.120;11.562;2023-02-28T03:15:10;-2.30;91.00
23499;DHT22;11926;48.120;11.562;2023-02-28T03:18:04;-2.30;90.90
23499;DHT22;11926;48.120;11.562;2023-02-28T03:21:03;-2.30;90.90
23499;DHT22;11926;48.120;11.562;2023-02-28T03:24:03;-2.30;91.00
23499;DHT22;11926;48.120;11.562;2023-02-28T03:27:05;-2.30;91.00
23499;DHT22;11926;48.120;11.562;2023-02-28T03:30:00;-2.40;91.00
23499;DHT22;11926;48.120;11.562;2023-02-28T03:32:55;-2.40;91.00
23499;DHT22;11926;48.120;11.562;2023-02-28T03:35:50;-2.40;91.00
23499;DHT22;11926;48.120;11.562;2023-02-28T03:38:42;-2.30;91.10
23499;DHT22;11926;48.120;11.562;2023-02-28T03:41:35;-2.40;91.10
23499;DHT22;11926;48.120;11.562;2023-02-28T03:44:30;-2.40;91.10
23499;DHT22;11926;48.120;11.562;2023-02-28T03:47:23;-2.30;91.20
23499;DHT22;11926;48.120;11.562;2023-02-28T03:50:16;-2.40;91.20
23499;DHT22;11926;48.120;11.562;2023-02-28T03:53:10;-2.40;91.20
23499;DHT22;11926;48.120;11.562;2023-02-28T03:56:03;-2.40;91.30
23499;DHT22;11926;48.120;11.562;2023-02-28T03:58:58;-2.40;91.40
23499;DHT22;11926;48.120;11.562;2023-02-28T04:01:49;-2.40;91.40
23499;DHT22;11926;48.120;11.562;2023-02-28T04:04:38;-2.40;91.50
23499;DHT22;11926;48.120;11.562;2023-02-28T04:07:31;-2.40;91.50
23499;DHT22;11926;48.120;11.562;2023-02-28T04:10:20;-2.40;91.50
23499;DHT22;11926;48.120;11.562;2023-02-28T04:13:07;-2.40;91.50
23499;DHT22;11926;48.120;11.562;2023-02-28T04:15:55;-2.40;91.60
23499;DHT22;11926;48.120;11.562;2023-02-28T04:18:45;-2.40;91.60
23499;DHT22;11926;48.120;11.562;2023-02-28T04:21:34;-2.40;91.60
23499;DHT22;11926;48.120;11.562;2023-02-28T04:24:29;-2.40;91.70
23499;DHT22;11926;48.120;11.562;2023-02-28T04:27:16;-2.40;91.70
23499;DHT22;11926;48.120;11.562;2023-02-28T04:30:06;-2.30;91.80
23499;DHT22;11926;48.120;11.562;2023-02-28T04:32:57;-2.30;91.80
23499;DHT22;11926;48.120;11.562;2023-02-28T04:35:46;-2.30;91.80
23499;DHT22;11926;48.120;11.562;2023-02-28T04:38:35;-2.30;91.80
23499;DHT22;11926;48.120;11.562;2023-02-28T04:41:23;-2.20;91.90
23499;DHT22;11926;48.120;11.562;2023-02-28T04:44:14;-2.20;91.90
23499;DHT22;11926;48.120;11.562;2023-02-28T04:47:02;-2.10;92.00
23499;DHT22;11926;48.120;11.562;2023-02-28T04:49:50;-2.00;92.00
23499;DHT22;11926;48.120;11.562;2023-02-28T04:52:40;-2.00;91.90
23499;DHT22;11926;48.120;11.562;2023-02-28T04:55:27;-1.90;92.00
23499;DHT22;11926;48.120;11.562;2023-02-28T04:58:17;-1.90;92.00
23499;DHT22;11926;48.120;11.562;2023-02-28T05:01:18;-1.90;92.00
23499;DHT22;11926;48.120;11.562;2023-02-28T05:04:06;-1.80;92.00
23499;DHT22;11926;48.120;11.562;2023-02-28T05:06:53;-1.80;92.00
23499;DHT22;11926;48.120;11.562;2023-02-28T05:09:42;-1.80;92.10
23499;DHT22;11926;48.120;11.562;2023-02-28T05:12:30;-1.70;92.00
23499;DHT22;11926;48.120;11.562;2023-02-28T05:15:17;-1.70;92.10
23499;DHT22;11926;48.120;11.562;2023-02-28T05:18:05;-1.70;92.10
23499;DHT22;11926;48.120;11.562;2023-02-28T05:20:52;-1.60;92.10
23499;DHT22;11926;48.120;11.562;2023-02-28T05:23:41;-1.60;92.20
23499;DHT22;11926;48.120;11.562;2023-02-28T05:26:36;-1.60;92.10
23499;DHT22;11926;48.120;11.562;2023-02-28T05:29:27;-1.50;92.20
23499;DHT22;11926;48.120;11.562;2023-02-28T05:32:17;-1.60;92.10
23499;DHT22;11926;48.120;11.562;2023-02-28T05:35:05;-1.50;92.20
23499;DHT22;11926;48.120;11.562;2023-02-28T05:37:53;-1.50;92.20
23499;DHT22;11926;48.120;11.562;2023-02-28T05:40:44;-1.40;92.20
23499;DHT22;11926;48.120;11.562;2023-02-28T05:43:33;-1.40;92.20
23499;DHT22;11926;48.120;11.562;2023-02-28T05:46:21;-1.40;92.10
23499;DHT22;11926;48.120;11.562;2023-02-28T05:49:11;-1.40;92.10
23499;DHT22;11926;48.120;11.562;2023-02-28T05:52:01;-1.40;92.20
23499;DHT22;11926;48.120;11.562;2023-02-28T05:54:52;-1.30;92.20
23499;DHT22;11926;48.120;11.562;2023-02-28T05:57:40;-1.30;92.10
23499;DHT22;11926;48.120;11.562;2023-02-28T06:00:29;-1.30;92.10
23499;DHT22;11926;48.120;11.562;2023-02-28T06:03:17;-1.30;92.10
23499;DHT22;11926;48.120;11.562;2023-02-28T06:06:04;-1.30;92.10
23499;DHT22;11926;48.120;11.562;2023-02-28T06:08:54;-1.30;92.10
23499;DHT22;11926;48.120;11.562;2023-02-28T06:11:41;-1.30;92.10
23499;DHT22;11926;48.120;11.562;2023-02-28T06:14:29;-1.20;92.10
23499;DHT22;11926;48.120;11.562;2023-02-28T06:17:18;-1.20;92.10
23499;DHT22;11926;48.120;11.562;2023-02-28T06:20:07;-1.20;92.00
23499;DHT22;11926;48.120;11.562;2023-02-28T06:22:56;-1.20;92.00
23499;DHT22;11926;48.120;11.562;2023-02-28T06:25:45;-1.20;92.00
23499;DHT22;11926;48.120;11.562;2023-02-28T06:28:34;-1.20;91.90
23499;DHT22;11926;48.120;11.562;2023-02-28T06:31:24;-1.20;92.00
23499;DHT22;11926;48.120;11.562;2023-02-28T06:34:14;-1.20;92.00
23499;DHT22;11926;48.120;11.562;2023-02-28T06:37:01;-1.20;92.00
23499;DHT22;11926;48.120;11.562;2023-02-28T06:39:52;-1.10;91.90
23499;DHT22;11926;48.120;11.562;2023-02-28T06:42:39;-1.10;91.90
23499;DHT22;11926;48.120;11.562;2023-02-28T06:45:27;-1.10;91.80
23499;DHT22;11926;48.120;11.562;2023-02-28T06:48:19;-1.10;91.80
23499;DHT22;11926;48.120;11.562;2023-02-28T06:51:12;-1.10;91.70
23499;DHT22;11926;48.120;11.562;2023-02-28T06:54:00;-1.00;91.70
23499;DHT22;11926;48.120;11.562;2023-02-28T06:56:47;-1.00;91.60
23499;DHT22;11926;48.120;11.562;2023-02-28T06:59:35;-1.00;92.10
23499;DHT22;11926;48.120;11.562;2023-02-28T07:02:23;-1.00;91.70
23499;DHT22;11926;48.120;11.562;2023-02-28T07:05:11;-1.00;91.60
23499;DHT22;11926;48.120;11.562;2023-02-28T07:08:03;-1.00;91.60
23499;DHT22;11926;48.120;11.562;2023-02-28T07:10:52;-1.00;91.60
23499;DHT22;11926;48.120;11.562;2023-02-28T07:13:42;-0.90;91.60
23499;DHT22;11926;48.120;11.562;2023-02-28T07:16:30;-0.80;91.60
23499;DHT22;11926;48.120;11.562;2023-02-28T07:19:20;-0.90;91.50
23499;DHT22;11926;48.120;11.562;2023-02-28T07:22:07;-0.90;91.40
23499;DHT22;11926;48.120;11.562;2023-02-28T07:24:56;-0.90;91.40
23499;DHT22;11926;48.120;11.562;2023-02-28T07:27:44;-0.80;91.40
23499;DHT22;11926;48.120;11.562;2023-02-28T07:30:31;-0.80;91.50
23499;DHT22;11926;48.120;11.562;2023-02-28T07:33:18;-0.80;91.50
23499;DHT22;11926;48.120;11.562;2023-02-28T07:36:08;-0.80;91.40
23499;DHT22;11926;48.120;11.562;2023-02-28T07:39:01;-0.70;91.40
23499;DHT22;11926;48.120;11.562;2023-02-28T07:41:53;-0.70;91.40
23499;DHT22;11926;48.120;11.562;2023-02-28T07:44:44;-0.70;91.30
23499;DHT22;11926;48.120;11.562;2023-02-28T07:47:32;-0.70;91.20
23499;DHT22;11926;48.120;11.562;2023-02-28T07:50:19;-0.70;91.20
23499;DHT22;11926;48.120;11.562;2023-02-28T07:53:06;-0.70;91.30
23499;DHT22;11926;48.120;11.562;2023-02-28T07:55:55;-0.70;91.20
23499;DHT22;11926;48.120;11.562;2023-02-28T07:58:51;-0.70;91.10
23499;DHT22;11926;48.120;11.562;2023-02-28T08:01:48;-0.70;91.10
23499;DHT22;11926;48.120;11.562;2023-02-28T08:04:42;-0.70;91.20
23499;DHT22;11926;48.120;11.562;2023-02-28T08:07:29;-0.70;91.20
23499;DHT22;11926;48.120;11.562;2023-02-28T08:10:18;-0.60;91.20
23499;DHT22;11926;48.120;11.562;2023-02-28T08:13:05;-0.60;91.00
23499;DHT22;11926;48.120;11.562;2023-02-28T08:15:53;-0.50;91.10
23499;DHT22;11926;48.120;11.562;2023-02-28T08:18:41;-0.60;91.00
23499;DHT22;11926;48.120;11.562;2023-02-28T08:21:28;-0.60;91.00
23499;DHT22;11926;48.120;11.562;2023-02-28T08:24:16;-0.60;90.90
23499;DHT22;11926;48.120;11.562;2023-02-28T08:27:03;-0.60;90.90
23499;DHT22;11926;48.120;11.562;2023-02-28T08:30:07;-0.60;91.40
23499;DHT22;11926;48.120;11.562;2023-02-28T08:36:27;-0.50;90.90
23499;DHT22;11926;48.120;11.562;2023-02-28T08:39:15;-0.50;90.80
23499;DHT22;11926;48.120;11.562;2023-02-28T08:42:03;-0.50;90.80
23499;DHT22;11926;48.120;11.562;2023-02-28T08:44:52;-0.50;90.80
23499;DHT22;11926;48.120;11.562;2023-02-28T08:47:39;-0.50;90.80
23499;DHT22;11926;48.120;11.562;2023-02-28T08:50:54;-0.40;90.90
23499;DHT22;11926;48.120;11.562;2023-02-28T08:53:56;-0.30;90.90
23499;DHT22;11926;48.120;11.562;2023-02-28T08:56:45;-0.30;90.80
23499;DHT22;11926;48.120;11.562;2023-02-28T08:59:33;-0.20;90.70
23499;DHT22;11926;48.120;11.562;2023-02-28T09:02:20;-0.20;90.70
23499;DHT22;11926;48.120;11.562;2023-02-28T09:05:08;-0.30;90.60
23499;DHT22;11926;48.120;11.562;2023-02-28T09:07:56;-0.30;90.60
23499;DHT22;11926;48.120;11.562;2023-02-28T09:10:44;-0.20;90.70
23499;DHT22;11926;48.120;11.562;2023-02-28T09:13:32;-0.20;90.70
23499;DHT22;11926;48.120;11.562;2023-02-28T09:16:20;-0.10;90.70
23499;DHT22;11926;48.120;11.562;2023-02-28T09:19:10;0.10;90.70
23499;DHT22;11926;48.120;11.562;2023-02-28T09:21:57;0.20;90.50
23499;DHT22;11926;48.120;11.562;2023-02-28T09:24:44;0.20;90.40
23499;DHT22;11926;48.120;11.562;2023-02-28T09:27:33;0.20;90.30
23499;DHT22;11926;48.120;11.562;2023-02-28T09:30:20;0.30;90.40
23499;DHT22;11926;48.120;11.562;2023-02-28T09:33:08;0.40;90.40
23499;DHT22;11926;48.120;11.562;2023-02-28T09:35:59;0.50;90.30
23499;DHT22;11926;48.120;11.562;2023-02-28T09:38:49;0.60;90.10
23499;DHT22;11926;48.120;11.562;2023-02-28T09:41:42;0.50;89.90
23499;DHT22;11926;48.120;11.562;2023-02-28T09:44:40;0.30;89.50
23499;DHT22;11926;48.120;11.562;2023-02-28T09:47:32;0.40;90.00
23499;DHT22;11926;48.120;11.562;2023-02-28T09:50:30;0.40;90.00
23499;DHT22;11926;48.120;11.562;2023-02-28T09:53:26;0.50;90.00
23499;DHT22;11926;48.120;11.562;2023-02-28T09:56:20;0.50;89.80
23499;DHT22;11926;48.120;11.562;2023-02-28T09:59:22;0.60;89.90
23499;DHT22;11926;48.120;11.562;2023-02-28T10:02:23;0.80;90.10
23499;DHT22;11926;48.120;11.562;2023-02-28T10:05:20;0.90;89.70
23499;DHT22;11926;48.120;11.562;2023-02-28T10:08:14;1.00;89.20
23499;DHT22;11926;48.120;11.562;2023-02-28T10:11:06;1.00;89.00
23499;DHT22;11926;48.120;11.562;2023-02-28T10:13:58;1.10;88.80
23499;DHT22;11926;48.120;11.562;2023-02-28T10:16:53;1.10;88.50
23499;DHT22;11926;48.120;11.562;2023-02-28T10:19:49;1.10;88.50
23499;DHT22;11926;48.120;11.562;2023-02-28T10:22:43;1.10;88.40
23499;DHT22;11926;48.120;11.562;2023-02-28T10:25:38;1.10;88.10
23499;DHT22;11926;48.120;11.562;2023-02-28T10:28:27;1.10;87.60
23499;DHT22;11926;48.120;11.562;2023-02-28T10:31:19;1.10;87.70
23499;DHT22;11926;48.120;11.562;2023-02-28T10:34:11;1.20;87.90
23499;DHT22;11926;48.120;11.562;2023-02-28T10:37:05;1.20;87.70
23499;DHT22;11926;48.120;11.562;2023-02-28T10:39:55;1.20;87.20
23499;DHT22;11926;48.120;11.562;2023-02-28T10:42:55;1.40;87.70
23499;DHT22;11926;48.120;11.562;2023-02-28T10:45:56;1.90;88.90
23499;DHT22;11926;48.120;11.562;2023-02-28T10:48:47;2.70;88.00
23499;DHT22;11926;48.120;11.562;2023-02-28T10:51:39;2.90;85.40
23499;DHT22;11926;48.120;11.562;2023-02-28T10:54:30;3.00;84.90
23499;DHT22;11926;48.120;11.562;2023-02-28T10:57:22;2.90;83.90
23499;DHT22;11926;48.120;11.562;2023-02-28T11:00:16;2.80;83.50
23499;DHT22;11926;48.120;11.562;2023-02-28T11:03:29;2.50;83.70
23499;DHT22;11926;48.120;11.562;2023-02-28T11:06:19;2.50;84.20
23499;DHT22;11926;48.120;11.562;2023-02-28T11:09:19;2.70;84.10
23499;DHT22;11926;48.120;11.562;2023-02-28T11:12:22;2.70;83.00
23499;DHT22;11926;48.120;11.562;2023-02-28T11:15:21;2.60;82.10
23499;DHT22;11926;48.120;11.562;2023-02-28T11:18:21;2.30;82.00
23499;DHT22;11926;48.120;11.562;2023-02-28T11:21:16;2.20;82.40
23499;DHT22;11926;48.120;11.562;2023-02-28T11:24:15;2.10;82.40
23499;DHT22;11926;48.120;11.562;2023-02-28T11:27:11;2.10;82.60
23499;DHT22;11926;48.120;11.562;2023-02-28T11:30:30;2.00;82.60
23499;DHT22;11926;48.120;11.562;2023-02-28T11:33:25;2.20;83.00
23499;DHT22;11926;48.120;11.562;2023-02-28T11:36:16;2.40;82.90
23499;DHT22;11926;48.120;11.562;2023-02-28T11:39:11;2.50;82.50
23499;DHT22;11926;48.120;11.562;2023-02-28T11:42:10;2.60;82.30
23499;DHT22;11926;48.120;11.562;2023-02-28T11:45:12;2.70;82.70
23499;DHT22;11926;48.120;11.562;2023-02-28T11:48:13;3.00;82.60
23499;DHT22;11926;48.120;11.562;2023-02-28T11:51:11;3.20;82.10
23499;DHT22;11926;48.120;11.562;2023-02-28T11:54:13;3.40;81.70
23499;DHT22;11926;48.120;11.562;2023-02-28T11:57:19;3.50;81.30
23499;DHT22;11926;48.120;11.562;2023-02-28T12:00:33;3.70;81.50
23499;DHT22;11926;48.120;11.562;2023-02-28T12:03:34;3.80;80.90
23499;DHT22;11926;48.120;11.562;2023-02-28T12:06:28;3.90;80.30
23499;DHT22;11926;48.120;11.562;2023-02-28T12:09:35;3.70;79.20
23499;DHT22;11926;48.120;11.562;2023-02-28T12:12:37;3.60;79.40
23499;DHT22;11926;48.120;11.562;2023-02-28T12:15:39;3.50;79.40
23499;DHT22;11926;48.120;11.562;2023-02-28T12:18:45;3.60;79.80
23499;DHT22;11926;48.120;11.562;2023-02-28T12:21:49;3.80;80.40
23499;DHT22;11926;48.120;11.562;2023-02-28T12:24:55;3.90;79.20
23499;DHT22;11926;48.120;11.562;2023-02-28T12:27:49;3.90;79.00
23499;DHT22;11926;48.120;11.562;2023-02-28T12:30:43;3.80;78.80
23499;DHT22;11926;48.120;11.562;2023-02-28T12:33:42;3.80;78.70
23499;DHT22;11926;48.120;11.562;2023-02-28T12:36:36;3.80;78.00
23499;DHT22;11926;48.120;11.562;2023-02-28T12:39:28;3.70;78.20
23499;DHT22;11926;48.120;11.562;2023-02-28T12:42:39;3.70;77.70
23499;DHT22;11926;48.120;11.562;2023-02-28T12:45:40;3.70;77.70
23499;DHT22;11926;48.120;11.562;2023-02-28T12:48:37;3.70;77.90
23499;DHT22;11926;48.120;11.562;2023-02-28T12:51:29;3.80;78.50
23499;DHT22;11926;48.120;11.562;2023-02-28T12:54:22;3.90;78.40
23499;DHT22;11926;48.120;11.562;2023-02-28T12:57:15;4.10;78.10
23499;DHT22;11926;48.120;11.562;2023-02-28T13:00:12;4.20;77.50
23499;DHT22;11926;48.120;11.562;2023-02-28T13:03:17;4.20;77.00
23499;DHT22;11926;48.120;11.562;2023-02-28T13:06:18;4.10;76.90
23499;DHT22;11926;48.120;11.562;2023-02-28T13:09:12;4.10;77.00
23499;DHT22;11926;48.120;11.562;2023-02-28T13:12:01;4.10;77.20
23499;DHT22;11926;48.120;11.562;2023-02-28T13:15:15;4.20;76.70
23499;DHT22;11926;48.120;11.562;2023-02-28T13:18:31;4.20;76.60
23499;DHT22;11926;48.120;11.562;2023-02-28T13:21:24;4.30;76.50
23499;DHT22;11926;48.120;11.562;2023-02-28T13:24:37;4.40;76.20
23499;DHT22;11926;48.120;11.562;2023-02-28T13:27:40;4.50;76.20
23499;DHT22;11926;48.120;11.562;2023-02-28T13:39:49;4.40;75.20
23499;DHT22;11926;48.120;11.562;2023-02-28T13:42:47;4.50;75.40
23499;DHT22;11926;48.120;11.562;2023-02-28T13:45:36;4.60;76.00
23499;DHT22;11926;48.120;11.562;2023-02-28T13:48:28;4.70;75.00
23499;DHT22;11926;48.120;11.562;2023-02-28T13:54:40;4.50;75.00
23499;DHT22;11926;48.120;11.562;2023-02-28T13:57:50;4.40;74.80
23499;DHT22;11926;48.120;11.562;2023-02-28T14:01:05;4.40;74.90
23499;DHT22;11926;48.120;11.562;2023-02-28T14:04:12;4.30;74.70
23499;DHT22;11926;48.120;11.562;2023-02-28T14:07:02;4.30;74.70
23499;DHT22;11926;48.120;11.562;2023-02-28T14:09:57;4.20;75.00
23499;DHT22;11926;48.120;11.562;2023-02-28T14:13:03;4.30;75.30
23499;DHT22;11926;48.120;11.562;2023-02-28T14:15:57;4.50;75.60
23499;DHT22;11926;48.120;11.562;2023-02-28T14:18:51;4.60;75.10
23499;DHT22;11926;48.120;11.562;2023-02-28T14:21:47;4.50;75.30
23499;DHT22;11926;48.120;11.562;2023-02-28T14:24:54;4.60;74.70
23499;DHT22;11926;48.120;11.562;2023-02-28T14:27:48;4.50;74.20
23499;DHT22;11926;48.120;11.562;2023-02-28T14:30:53;4.40;73.90
23499;DHT22;11926;48.120;11.562;2023-02-28T14:33:59;4.30;74.30
23499;DHT22;11926;48.120;11.562;2023-02-28T14:36:50;4.20;74.40
23499;DHT22;11926;48.120;11.562;2023-02-28T14:39:42;4.30;74.50
23499;DHT22;11926;48.120;11.562;2023-02-28T14:42:33;4.80;74.10
23499;DHT22;11926;48.120;11.562;2023-02-28T14:45:22;4.90;74.70
23499;DHT22;11926;48.120;11.562;2023-02-28T14:48:15;5.20;74.10
23499;DHT22;11926;48.120;11.562;2023-02-28T14:51:03;5.40;72.70
23499;DHT22;11926;48.120;11.562;2023-02-28T14:53:57;5.40;73.20
23499;DHT22;11926;48.120;11.562;2023-02-28T14:56:49;5.40;72.90
23499;DHT22;11926;48.120;11.562;2023-02-28T14:59:37;5.40;72.20
23499;DHT22;11926;48.120;11.562;2023-02-28T15:02:29;5.40;72.90
23499;DHT22;11926;48.120;11.562;2023-02-28T15:05:24;5.50;72.70
23499;DHT22;11926;48.120;11.562;2023-02-28T15:08:15;5.60;72.70
23499;DHT22;11926;48.120;11.562;2023-02-28T15:11:05;5.90;72.30
23499;DHT22;11926;48.120;11.562;2023-02-28T15:13:57;6.10;71.40
23499;DHT22;11926;48.120;11.562;2023-02-28T15:16:45;6.20;71.10
23499;DHT22;11926;48.120;11.562;2023-02-28T15:19:37;6.40;70.60
23499;DHT22;11926;48.120;11.562;2023-02-28T15:22:34;6.50;70.10
23499;DHT22;11926;48.120;11.562;2023-02-28T15:25:23;6.40;69.70
23499;DHT22;11926;48.120;11.562;2023-02-28T15:28:17;6.30;69.60
23499;DHT22;11926;48.120;11.562;2023-02-28T15:31:21;6.20;69.90
23499;DHT22;11926;48.120;11.562;2023-02-28T15:34:18;6.20;70.10
23499;DHT22;11926;48.120;11.562;2023-02-28T15:37:32;6.00;70.10
23499;DHT22;11926;48.120;11.562;2023-02-28T15:43:14;5.60;71.10
23499;DHT22;11926;48.120;11.562;2023-02-28T15:46:08;5.50;71.30
23499;DHT22;11926;48.120;11.562;2023-02-28T15:48:57;5.40;71.30
23499;DHT22;11926;48.120;11.562;2023-02-28T15:51:44;5.20;71.40
23499;DHT22;11926;48.120;11.562;2023-02-28T15:54:35;5.00;71.40
23499;DHT22;11926;48.120;11.562;2023-02-28T15:57:28;4.80;71.60
23499;DHT22;11926;48.120;11.562;2023-02-28T16:00:20;4.70;71.90
23499;DHT22;11926;48.120;11.562;2023-02-28T16:03:22;4.60;72.40
23499;DHT22;11926;48.120;11.562;2023-02-28T16:06:26;4.50;72.40
23499;DHT22;11926;48.120;11.562;2023-02-28T16:09:17;4.40;72.80
23499;DHT22;11926;48.120;11.562;2023-02-28T16:12:08;4.30;73.20
23499;DHT22;11926;48.120;11.562;2023-02-28T16:15:02;4.30;73.40
23499;DHT22;11926;48.120;11.562;2023-02-28T16:17:50;4.30;73.60
23499;DHT22;11926;48.120;11.562;2023-02-28T16:20:38;4.30;73.80
23499;DHT22;11926;48.120;11.562;2023-02-28T16:23:25;4.30;74.90
23499;DHT22;11926;48.120;11.562;2023-02-28T16:26:19;4.20;74.10
23499;DHT22;11926;48.120;11.562;2023-02-28T16:29:08;4.20;74.30
23499;DHT22;11926;48.120;11.562;2023-02-28T16:31:57;4.10;74.60
23499;DHT22;11926;48.120;11.562;2023-02-28T16:34:44;4.00;74.80
23499;DHT22;11926;48.120;11.562;2023-02-28T16:37:32;3.90;75.00
23499;DHT22;11926;48.120;11.562;2023-02-28T16:40:21;3.90;75.30
23499;DHT22;11926;48.120;11.562;2023-02-28T16:43:14;3.80;75.70
23499;DHT22;11926;48.120;11.562;2023-02-28T16:46:03;3.80;75.90
23499;DHT22;11926;48.120;11.562;2023-02-28T16:48:52;3.70;76.00
23499;DHT22;11926;48.120;11.562;2023-02-28T16:51:39;3.70;76.20
23499;DHT22;11926;48.120;11.562;2023-02-28T16:54:26;3.70;76.60
23499;DHT22;11926;48.120;11.562;2023-02-28T16:57:20;3.60;76.80
23499;DHT22;11926;48.120;11.562;2023-02-28T17:00:11;3.70;76.90
23499;DHT22;11926;48.120;11.562;2023-02-28T17:03:00;3.60;76.90
23499;DHT22;11926;48.120;11.562;2023-02-28T17:05:51;3.60;77.00
23499;DHT22;11926;48.120;11.562;2023-02-28T17:08:38;3.60;77.10
23499;DHT22;11926;48.120;11.562;2023-02-28T17:11:26;3.50;77.30
23499;DHT22;11926;48.120;11.562;2023-02-28T17:14:14;3.50;77.50
23499;DHT22;11926;48.120;11.562;2023-02-28T17:17:01;3.40;77.50
23499;DHT22;11926;48.120;11.562;2023-02-28T17:19:50;3.40;78.00
23499;DHT22;11926;48.120;11.562;2023-02-28T17:22:37;3.30;78.00
23499;DHT22;11926;48.120;11.562;2023-02-28T17:25:25;3.30;78.10
23499;DHT22;11926;48.120;11.562;2023-02-28T17:28:12;3.20;78.20
23499;DHT22;11926;48.120;11.562;2023-02-28T17:30:59;3.20;78.50
23499;DHT22;11926;48.120;11.562;2023-02-28T17:33:46;3.20;78.70
23499;DHT22;11926;48.120;11.562;2023-02-28T17:36:35;3.20;78.80
23499;DHT22;11926;48.120;11.562;2023-02-28T17:39:23;3.20;79.80
23499;DHT22;11926;48.120;11.562;2023-02-28T17:42:10;3.20;79.00
23499;DHT22;11926;48.120;11.562;2023-02-28T17:44:58;3.20;79.20
23499;DHT22;11926;48.120;11.562;2023-02-28T17:47:48;3.20;79.20
23499;DHT22;11926;48.120;11.562;2023-02-28T17:50:35;3.20;79.30
23499;DHT22;11926;48.120;11.562;2023-02-28T17:53:24;3.20;79.40
23499;DHT22;11926;48.120;11.562;2023-02-28T17:56:14;3.20;79.40
23499;DHT22;11926;48.120;11.562;2023-02-28T17:59:03;3.20;79.60
23499;DHT22;11926;48.120;11.562;2023-02-28T18:01:50;3.20;79.80
23499;DHT22;11926;48.120;11.562;2023-02-28T18:04:37;3.30;79.90
23499;DHT22;11926;48.120;11.562;2023-02-28T18:07:25;3.30;80.10
23499;DHT22;11926;48.120;11.562;2023-02-28T18:13:05;3.40;80.30
23499;DHT22;11926;48.120;11.562;2023-02-28T18:15:53;3.40;80.50
23499;DHT22;11926;48.120;11.562;2023-02-28T18:18:40;3.40;80.60
23499;DHT22;11926;48.120;11.562;2023-02-28T18:21:28;3.40;80.50
23499;DHT22;11926;48.120;11.562;2023-02-28T18:24:17;3.50;80.70
23499;DHT22;11926;48.120;11.562;2023-02-28T18:27:06;3.40;80.90